Time;durP1;ratioP1;P1;durP2;ratioP2;P2;SDS_P1;SDS_P2;PMS_P1;PMS_P2;Temp;Humidity;BMP_temperature;BMP_pressure;BME280_temperature;BME280_humidity;BME280_pressure;Samples;Min_cycle;Max_cycle;Signal;HPM_P1;HPM_P2
2022/03/15 00:00:10;;;;;;;13.05;7.18;;;5.60;99.90;;;;;;5071745;28;20040;-75
2022/03/15 00:02:35;;;;;;;16.58;6.85;;;5.60;99.90;;;;;;5071720;28;20046;-75
2022/03/15 00:05:01;;;;;;;18.55;8.70;;;5.50;99.90;;;;;;5094055;28;20043;-74
2022/03/15 00:07:26;;;;;;;12.25;6.60;;;5.40;99.90;;;;;;5085579;28;20405;-75
2022/03/15 00:09:52;;;;;;;15.98;6.70;;;5.40;99.90;;;;;;5070969;28;20094;-76
2022/03/15 00:12:18;;;;;;;11.18;5.30;;;5.40;99.90;;;;;;5070711;28;20041;-76
2022/03/15 00:14:44;;;;;;;10.63;4.60;;;5.50;99.90;;;;;;5070575;28;20036;-76
2022/03/15 00:17:10;;;;;;;7.68;4.85;;;5.40;99.90;;;;;;5070157;28;20452;-76
2022/03/15 00:19:36;;;;;;;11.55;5.18;;;5.40;99.90;;;;;;5070910;28;20044;-75
2022/03/15 00:22:04;;;;;;;8.07;4.38;;;5.40;99.90;;;;;;5081876;28;20529;-75
2022/03/15 00:24:29;;;;;;;8.63;5.22;;;5.40;99.90;;;;;;5072297;28;20041;-76
2022/03/15 00:26:55;;;;;;;8.77;4.90;;;5.40;99.90;;;;;;5072249;28;20105;-76
2022/03/15 00:29:23;;;;;;;12.77;5.50;;;5.50;99.90;;;;;;5071569;28;20036;-76
2022/03/15 00:31:49;;;;;;;11.27;5.35;;;5.50;99.90;;;;;;5069295;28;20043;-76
2022/03/15 00:34:15;;;;;;;10.57;5.88;;;5.50;99.90;;;;;;5070129;28;20044;-76
2022/03/15 00:36:41;;;;;;;11.38;5.97;;;5.60;99.90;;;;;;5069975;28;20404;-76
2022/03/15 00:39:08;;;;;;;10.35;6.03;;;5.50;99.90;;;;;;5069605;28;20047;-76
2022/03/15 00:41:34;;;;;;;7.03;5.88;;;5.60;99.90;;;;;;5069247;28;20076;-75
2022/03/15 00:44:00;;;;;;;10.55;5.55;;;5.60;99.90;;;;;;5070545;28;20075;-76
2022/03/15 00:46:26;;;;;;;6.65;5.53;;;5.50;99.90;;;;;;5069503;28;20045;-75
2022/03/15 00:48:52;;;;;;;10.10;5.95;;;5.50;99.90;;;;;;5069228;28;20039;-75
2022/03/15 00:51:17;;;;;;;10.23;6.68;;;5.40;99.90;;;;;;5069363;28;20112;-76
2022/03/15 00:53:43;;;;;;;17.08;6.63;;;5.40;99.90;;;;;;5068552;28;20040;-76
2022/03/15 00:56:08;;;;;;;13.20;7.07;;;5.50;99.90;;;;;;5069486;28;20102;-76
2022/03/15 00:58:34;;;;;;;13.20;6.45;;;5.50;99.90;;;;;;5070561;28;20452;-76
2022/03/15 01:01:00;;;;;;;11.82;7.55;;;5.30;99.90;;;;;;5069273;28;20033;-76
2022/03/15 01:03:26;;;;;;;9.75;6.60;;;5.30;99.90;;;;;;5067882;28;20036;-76
2022/03/15 01:05:52;;;;;;;16.40;6.57;;;5.30;99.90;;;;;;5070314;28;20047;-76
2022/03/15 01:08:17;;;;;;;7.72;5.97;;;5.30;99.90;;;;;;5069244;28;20041;-76
2022/03/15 01:10:43;;;;;;;16.60;7.28;;;5.40;99.90;;;;;;5069153;28;20507;-76
2022/03/15 01:13:09;;;;;;;16.25;7.65;;;5.30;99.90;;;;;;5068948;28;20055;-75
2022/03/15 01:15:42;;;;;;;12.55;6.88;;;5.30;99.90;;;;;;5079353;28;20040;-74
2022/03/15 01:18:09;;;;;;;20.20;7.53;;;5.20;99.90;;;;;;5080295;28;20076;-76
2022/03/15 01:20:37;;;;;;;13.98;7.05;;;5.20;99.90;;;;;;5053516;28;20040;-75
2022/03/15 01:23:03;;;;;;;10.85;6.60;;;5.20;99.90;;;;;;5069713;28;20040;-75
2022/03/15 01:25:30;;;;;;;7.97;5.95;;;5.20;99.90;;;;;;5070289;28;20456;-75
2022/03/15 01:27:56;;;;;;;13.18;6.03;;;5.10;99.90;;;;;;5069868;28;20040;-76
2022/03/15 01:30:22;;;;;;;11.63;7.22;;;5.00;99.90;;;;;;5052690;28;20115;-75
2022/03/15 01:32:48;;;;;;;12.93;6.65;;;5.00;99.90;;;;;;5068053;28;20041;-76
2022/03/15 01:35:13;;;;;;;11.25;6.30;;;5.00;99.90;;;;;;5069646;28;20115;-76
2022/03/15 01:37:39;;;;;;;9.15;6.20;;;4.90;99.90;;;;;;5068742;28;20560;-75
2022/03/15 01:40:05;;;;;;;7.32;5.75;;;4.90;99.90;;;;;;5070057;28;20106;-75
2022/03/15 01:42:31;;;;;;;11.85;7.07;;;5.00;99.90;;;;;;5068959;28;20040;-75
2022/03/15 01:44:56;;;;;;;11.07;6.70;;;5.00;99.90;;;;;;5073498;28;20044;-75
2022/03/15 01:47:22;;;;;;;8.80;5.82;;;5.00;99.90;;;;;;5095956;28;20133;-76
2022/03/15 01:49:47;;;;;;;9.05;5.50;;;4.80;99.90;;;;;;5076121;28;20497;-76
2022/03/15 01:52:15;;;;;;;8.30;5.32;;;4.70;99.90;;;;;;5071481;28;20492;-76
2022/03/15 01:54:42;;;;;;;7.88;5.50;;;4.80;99.90;;;;;;5071229;28;20101;-76
2022/03/15 01:57:09;;;;;;;8.88;5.22;;;4.70;99.90;;;;;;5070920;28;20106;-75
2022/03/15 01:59:35;;;;;;;8.95;5.75;;;4.70;99.90;;;;;;5069839;28;20454;-76
2022/03/15 02:02:02;;;;;;;9.73;6.03;;;4.60;99.90;;;;;;5069715;28;20968;-76
2022/03/15 02:04:27;;;;;;;10.18;6.63;;;4.70;99.90;;;;;;5068595;28;20045;-75
2022/03/15 02:07:05;;;;;;;14.95;6.18;;;4.80;99.90;;;;;;5052352;28;20047;-76
2022/03/15 02:09:31;;;;;;;8.38;5.85;;;4.80;99.90;;;;;;5052711;28;20072;-76
2022/03/15 02:11:56;;;;;;;8.05;5.80;;;4.80;99.90;;;;;;5069284;28;20075;-76
2022/03/15 02:14:22;;;;;;;9.20;5.75;;;4.90;99.90;;;;;;5068885;28;20063;-75
2022/03/15 02:16:48;;;;;;;10.25;6.30;;;4.80;99.90;;;;;;5068696;28;20123;-75
2022/03/15 02:19:13;;;;;;;11.00;5.50;;;4.80;99.90;;;;;;5068303;28;20135;-76
2022/03/15 02:21:39;;;;;;;7.53;5.30;;;4.70;99.90;;;;;;5068046;28;20082;-76
2022/03/15 02:24:07;;;;;;;8.85;6.30;;;4.60;99.90;;;;;;5070177;28;20041;-76
2022/03/15 02:26:32;;;;;;;7.57;5.18;;;4.60;99.90;;;;;;5080173;28;20051;-76
2022/03/15 02:28:58;;;;;;;5.45;4.95;;;4.60;99.90;;;;;;5091143;28;20036;-76
2022/03/15 02:31:24;;;;;;;7.95;5.07;;;4.40;99.90;;;;;;5072864;28;20091;-76
2022/03/15 02:33:50;;;;;;;8.90;5.20;;;4.40;99.90;;;;;;5067787;28;20075;-75
2022/03/15 02:36:16;;;;;;;8.55;6.15;;;4.40;99.90;;;;;;5068576;28;20055;-76
2022/03/15 02:38:42;;;;;;;11.00;6.13;;;4.40;99.90;;;;;;5068519;28;20052;-75
2022/03/15 02:41:08;;;;;;;7.97;4.90;;;4.50;99.90;;;;;;5070285;28;20063;-76
2022/03/15 02:43:34;;;;;;;9.70;5.70;;;4.50;99.90;;;;;;5069780;28;20041;-76
2022/03/15 02:45:59;;;;;;;7.65;5.78;;;4.50;99.90;;;;;;5072312;28;20047;-75
2022/03/15 02:48:25;;;;;;;6.05;4.50;;;4.50;99.90;;;;;;5071594;28;20040;-75
2022/03/15 02:50:51;;;;;;;9.95;5.10;;;4.30;99.90;;;;;;5073131;28;20040;-76
2022/03/15 02:53:16;;;;;;;9.85;4.97;;;4.30;99.90;;;;;;5070732;28;20045;-76
2022/03/15 02:55:43;;;;;;;8.80;5.47;;;4.30;99.90;;;;;;5072876;28;20051;-75
2022/03/15 02:58:08;;;;;;;8.07;5.13;;;4.30;99.90;;;;;;5073019;28;20043;-75
2022/03/15 03:00:34;;;;;;;8.65;4.72;;;4.20;99.90;;;;;;5072972;28;20503;-75
2022/03/15 03:03:00;;;;;;;8.73;5.07;;;4.10;99.90;;;;;;5070736;28;20044;-75
2022/03/15 03:05:26;;;;;;;7.60;5.70;;;4.10;99.90;;;;;;5073947;28;20128;-75
2022/03/15 03:07:51;;;;;;;5.43;4.60;;;4.20;99.90;;;;;;5098724;28;20067;-76
2022/03/15 03:10:17;;;;;;;10.55;4.90;;;4.30;99.90;;;;;;5095496;28;20115;-75
2022/03/15 03:12:47;;;;;;;5.13;4.03;;;4.20;99.90;;;;;;5073710;28;20056;-76
2022/03/15 03:15:14;;;;;;;8.43;4.35;;;4.10;99.90;;;;;;5073049;28;20043;-75
2022/03/15 03:17:43;;;;;;;6.75;4.40;;;4.20;99.90;;;;;;5072641;28;20345;-75
2022/03/15 03:20:13;;;;;;;5.47;4.05;;;4.20;99.90;;;;;;5070879;28;20044;-75
2022/03/15 03:22:42;;;;;;;6.72;4.32;;;4.30;99.90;;;;;;5070263;28;20114;-75
2022/03/15 03:25:09;;;;;;;5.68;4.20;;;4.20;99.90;;;;;;5071273;28;20036;-76
2022/03/15 03:27:34;;;;;;;4.57;4.00;;;4.30;99.90;;;;;;5054716;28;20052;-73
2022/03/15 03:30:00;;;;;;;5.40;3.58;;;4.20;99.90;;;;;;5070915;28;20043;-73
2022/03/15 03:32:26;;;;;;;6.05;3.70;;;4.20;99.90;;;;;;5069949;28;20417;-73
2022/03/15 03:34:54;;;;;;;5.05;3.92;;;4.20;99.90;;;;;;5071503;28;20049;-73
2022/03/15 03:37:20;;;;;;;5.85;4.35;;;4.10;99.90;;;;;;5076135;28;20044;-73
2022/03/15 03:39:47;;;;;;;4.32;3.80;;;4.00;99.90;;;;;;5090846;28;20173;-73
2022/03/15 03:42:13;;;;;;;5.30;3.60;;;4.10;99.90;;;;;;5079777;28;20036;-73
2022/03/15 03:44:42;;;;;;;4.40;4.00;;;4.20;99.90;;;;;;5071582;28;20489;-74
2022/03/15 03:47:07;;;;;;;5.07;4.22;;;4.20;99.90;;;;;;5070523;28;20045;-74
2022/03/15 03:49:33;;;;;;;4.45;4.00;;;4.30;99.90;;;;;;5072335;28;20052;-74
2022/03/15 03:51:59;;;;;;;4.90;4.10;;;4.30;99.90;;;;;;5070173;28;20039;-73
2022/03/15 03:54:25;;;;;;;5.68;3.95;;;4.20;99.90;;;;;;5070449;28;20040;-74
2022/03/15 03:56:51;;;;;;;6.18;4.15;;;4.20;99.90;;;;;;5072072;28;20047;-73
2022/03/15 03:59:17;;;;;;;4.22;3.83;;;4.10;99.90;;;;;;5072087;28;20061;-76
2022/03/15 04:01:43;;;;;;;4.85;4.43;;;4.00;99.90;;;;;;5069756;28;20053;-76
2022/03/15 04:04:10;;;;;;;5.35;4.50;;;4.10;99.90;;;;;;5070541;28;20047;-76
2022/03/15 04:06:36;;;;;;;5.88;5.07;;;4.20;99.90;;;;;;5070460;28;20063;-75
2022/03/15 04:09:04;;;;;;;6.05;4.85;;;4.30;99.90;;;;;;5071520;28;20040;-76
2022/03/15 04:11:31;;;;;;;9.00;5.45;;;4.30;99.90;;;;;;5070197;28;20079;-77
2022/03/15 04:13:59;;;;;;;11.70;6.40;;;4.30;99.90;;;;;;5071317;28;20118;-76
2022/03/15 04:16:26;;;;;;;14.57;6.20;;;4.40;99.90;;;;;;5071316;28;20045;-76
2022/03/15 04:18:51;;;;;;;11.13;7.13;;;4.40;99.90;;;;;;5070031;28;20473;-75
2022/03/15 04:21:18;;;;;;;11.68;7.05;;;4.40;99.90;;;;;;5070105;28;20050;-76
2022/03/15 04:23:45;;;;;;;14.27;7.63;;;4.40;99.90;;;;;;5069453;28;20044;-75
2022/03/15 04:26:10;;;;;;;13.95;7.88;;;4.50;99.90;;;;;;5071484;28;20382;-75
2022/03/15 04:28:36;;;;;;;16.15;8.35;;;4.60;99.90;;;;;;5077515;28;20043;-75
2022/03/15 04:31:03;;;;;;;17.58;9.00;;;4.60;99.90;;;;;;5096249;28;20096;-76
2022/03/15 04:33:28;;;;;;;16.98;9.75;;;4.50;99.90;;;;;;5087284;28;20170;-75
2022/03/15 04:35:54;;;;;;;16.27;8.23;;;4.50;99.90;;;;;;5074196;28;20036;-75
2022/03/15 04:38:19;;;;;;;14.90;8.70;;;4.50;99.90;;;;;;5070753;28;20033;-75
2022/03/15 04:40:45;;;;;;;16.58;7.85;;;4.50;99.90;;;;;;5070574;28;20036;-75
2022/03/15 04:43:11;;;;;;;15.13;8.73;;;4.50;99.90;;;;;;5069740;28;20105;-75
2022/03/15 04:45:36;;;;;;;19.75;9.82;;;4.60;99.90;;;;;;5071077;28;20036;-75
2022/03/15 04:48:02;;;;;;;19.92;10.10;;;4.60;99.90;;;;;;5069939;28;20097;-75
2022/03/15 04:50:27;;;;;;;19.80;10.07;;;4.60;99.90;;;;;;5089933;28;20028;-75
2022/03/15 04:52:53;;;;;;;21.23;11.48;;;4.60;99.90;;;;;;5091093;28;20051;-75
2022/03/15 04:55:19;;;;;;;19.38;10.77;;;4.70;99.90;;;;;;5069840;28;20036;-75
2022/03/15 04:57:44;;;;;;;19.00;11.23;;;4.70;99.90;;;;;;5070299;28;20040;-75
2022/03/15 05:00:10;;;;;;;27.20;11.23;;;4.70;99.90;;;;;;5069369;28;20405;-75
2022/03/15 05:02:44;;;;;;;28.48;12.60;;;4.80;99.90;;;;;;5070324;28;20109;-73
2022/03/15 05:05:10;;;;;;;24.27;12.25;;;4.80;99.90;;;;;;5069707;28;20044;-73
2022/03/15 05:07:36;;;;;;;28.17;13.20;;;4.90;99.90;;;;;;5069716;28;20154;-73
2022/03/15 05:12:47;;;;;;;28.73;14.10;;;4.90;99.90;;;;;;5070619;28;20049;-73
2022/03/15 05:15:12;;;;;;;29.15;13.95;;;4.90;99.90;;;;;;5070203;28;20385;-73
2022/03/15 05:17:38;;;;;;;36.22;14.32;;;4.90;99.90;;;;;;5069305;28;20073;-73
2022/03/15 05:20:06;;;;;;;28.90;14.45;;;4.90;99.90;;;;;;5070498;28;20063;-73
2022/03/15 05:22:34;;;;;;;20.73;10.27;;;4.90;99.90;;;;;;5068947;28;20045;-73
2022/03/15 05:25:00;;;;;;;20.27;11.77;;;4.80;99.90;;;;;;5068935;28;20119;-73
2022/03/15 05:27:26;;;;;;;25.88;12.32;;;4.90;99.90;;;;;;5070740;28;20040;-73
2022/03/15 05:29:55;;;;;;;26.45;13.50;;;4.80;99.90;;;;;;5069125;28;20458;-73
2022/03/15 05:32:20;;;;;;;31.05;14.63;;;4.80;99.90;;;;;;5069414;28;20044;-73
2022/03/15 05:34:46;;;;;;;37.03;16.40;;;4.80;99.90;;;;;;5069262;28;20052;-73
2022/03/15 05:37:12;;;;;;;27.75;14.77;;;4.90;99.90;;;;;;5068786;28;20068;-73
2022/03/15 05:39:37;;;;;;;34.58;16.20;;;4.90;99.90;;;;;;5069522;28;20040;-73
2022/03/15 05:42:03;;;;;;;30.50;17.05;;;4.90;99.90;;;;;;5068337;28;20124;-73
2022/03/15 05:44:29;;;;;;;36.58;18.95;;;4.90;99.90;;;;;;5069311;28;20128;-73
2022/03/15 05:46:55;;;;;;;44.92;22.33;;;5.00;99.90;;;;;;5070416;28;20068;-73
2022/03/15 05:49:21;;;;;;;47.22;22.60;;;5.10;99.90;;;;;;5069695;28;20452;-73
2022/03/15 05:51:46;;;;;;;49.13;22.60;;;5.10;99.90;;;;;;5080854;28;20075;-74
2022/03/15 05:54:12;;;;;;;50.65;22.85;;;5.20;99.90;;;;;;5096507;28;20036;-74
2022/03/15 05:56:39;;;;;;;46.00;23.75;;;5.20;99.90;;;;;;5083257;28;20075;-73
2022/03/15 05:59:05;;;;;;;46.63;22.40;;;5.30;99.90;;;;;;5070663;28;20048;-73
2022/03/15 06:01:31;;;;;;;44.30;21.95;;;5.30;99.90;;;;;;5074284;28;20063;-74
2022/03/15 06:03:57;;;;;;;47.80;23.23;;;5.30;99.90;;;;;;5083763;28;20076;-71
2022/03/15 06:06:23;;;;;;;47.55;23.17;;;5.30;99.90;;;;;;5064492;28;20523;-74
2022/03/15 06:08:50;;;;;;;51.33;24.48;;;5.30;99.90;;;;;;5070793;28;20036;-74
2022/03/15 06:11:17;;;;;;;45.17;23.40;;;5.30;99.90;;;;;;5068627;28;20547;-74
2022/03/15 06:13:43;;;;;;;52.58;24.38;;;5.30;99.90;;;;;;5066366;28;20056;-73
2022/03/15 06:16:09;;;;;;;50.58;24.02;;;5.30;99.90;;;;;;5066775;28;20048;-73
2022/03/15 06:18:35;;;;;;;52.92;24.63;;;5.40;99.90;;;;;;5069179;28;20079;-73
2022/03/15 06:21:00;;;;;;;48.10;24.50;;;5.40;99.90;;;;;;5073469;28;20040;-73
2022/03/15 06:23:26;;;;;;;51.25;24.90;;;5.40;99.90;;;;;;5072824;28;20037;-74
2022/03/15 06:25:52;;;;;;;47.92;23.55;;;5.40;99.90;;;;;;5072503;28;20048;-75
2022/03/15 06:28:17;;;;;;;51.67;24.65;;;5.50;99.90;;;;;;5073663;28;20119;-76
2022/03/15 06:30:44;;;;;;;55.63;24.73;;;5.50;99.90;;;;;;5071853;28;20098;-75
2022/03/15 06:33:10;;;;;;;48.58;23.90;;;5.50;99.90;;;;;;5071315;28;20048;-76
2022/03/15 06:35:36;;;;;;;45.90;22.75;;;5.50;99.90;;;;;;5073284;28;20040;-74
2022/03/15 06:38:02;;;;;;;46.20;24.17;;;5.50;99.90;;;;;;5066518;28;20272;-75
2022/03/15 06:40:29;;;;;;;52.67;25.20;;;5.50;99.90;;;;;;5073284;28;20036;-73
2022/03/15 06:42:55;;;;;;;47.58;22.23;;;5.60;99.90;;;;;;5073781;28;20423;-75
2022/03/15 06:45:22;;;;;;;45.33;23.63;;;5.60;99.90;;;;;;5072300;28;20052;-75
2022/03/15 06:47:48;;;;;;;46.20;23.50;;;5.60;99.90;;;;;;5071949;28;20068;-75
2022/03/15 06:50:14;;;;;;;46.55;23.70;;;5.60;99.90;;;;;;5071849;28;20071;-75
2022/03/15 06:52:41;;;;;;;47.33;22.95;;;5.60;99.90;;;;;;5071310;28;20037;-75
2022/03/15 06:55:08;;;;;;;46.65;24.05;;;5.60;99.90;;;;;;5072038;28;20047;-75
2022/03/15 06:57:34;;;;;;;47.45;23.70;;;5.70;99.90;;;;;;5071730;28;20044;-75
2022/03/15 07:00:01;;;;;;;49.33;23.98;;;5.70;99.90;;;;;;5073536;28;20048;-75
2022/03/15 07:02:27;;;;;;;54.88;24.67;;;5.70;99.90;;;;;;5070774;28;20080;-75
2022/03/15 07:04:52;;;;;;;49.13;26.27;;;5.70;99.90;;;;;;5054807;28;20044;-74
2022/03/15 07:07:19;;;;;;;45.88;23.73;;;5.70;99.90;;;;;;5072817;28;20488;-75
2022/03/15 07:09:44;;;;;;;51.22;25.30;;;5.80;99.90;;;;;;5076676;28;20033;-75
2022/03/15 07:12:10;;;;;;;47.65;24.52;;;5.80;99.90;;;;;;5075632;28;20400;-76
2022/03/15 07:14:35;;;;;;;48.55;24.42;;;5.80;99.90;;;;;;5097657;28;20039;-77
2022/03/15 07:17:01;;;;;;;51.05;24.48;;;5.80;99.90;;;;;;5097343;28;20028;-76
2022/03/15 07:19:27;;;;;;;53.05;24.73;;;5.90;99.90;;;;;;5097496;28;20027;-76
2022/03/15 07:21:54;;;;;;;55.05;25.77;;;5.90;99.90;;;;;;5078015;28;20074;-75
2022/03/15 07:24:19;;;;;;;50.25;25.63;;;6.00;99.90;;;;;;5055844;28;20059;-75
2022/03/15 07:26:45;;;;;;;55.80;27.45;;;5.90;99.90;;;;;;5073063;28;20124;-75
2022/03/15 07:29:11;;;;;;;50.78;25.58;;;6.00;99.90;;;;;;5071713;28;20047;-75
2022/03/15 07:31:36;;;;;;;51.13;25.73;;;6.00;99.90;;;;;;5070952;28;20610;-76
2022/03/15 07:34:02;;;;;;;57.92;25.67;;;6.00;99.90;;;;;;5071171;28;20059;-76
2022/03/15 07:36:27;;;;;;;46.30;25.00;;;6.10;99.90;;;;;;5071644;28;20063;-76
2022/03/15 07:38:53;;;;;;;50.78;25.38;;;6.10;99.90;;;;;;5054489;28;20044;-76
2022/03/15 07:41:21;;;;;;;53.05;26.83;;;6.10;99.90;;;;;;5071323;28;20509;-76
2022/03/15 07:43:47;;;;;;;48.92;26.10;;;6.10;99.90;;;;;;5072454;28;20416;-75
2022/03/15 07:46:13;;;;;;;53.80;26.25;;;6.20;99.90;;;;;;5071543;28;20074;-75
2022/03/15 07:48:39;;;;;;;48.47;24.45;;;6.20;99.90;;;;;;5070560;28;20045;-74
2022/03/15 07:51:04;;;;;;;43.55;24.42;;;6.30;99.90;;;;;;5070899;28;20040;-75
2022/03/15 07:53:30;;;;;;;49.88;25.65;;;6.30;99.90;;;;;;5070209;28;20409;-74
2022/03/15 07:55:57;;;;;;;51.88;27.02;;;6.30;99.90;;;;;;5071991;28;20087;-74
2022/03/15 07:58:23;;;;;;;47.33;26.85;;;6.30;99.90;;;;;;5071105;28;20123;-73
2022/03/15 08:00:53;;;;;;;45.88;25.33;;;6.30;99.90;;;;;;5070321;28;20170;-73
2022/03/15 08:03:19;;;;;;;49.47;26.10;;;6.30;99.90;;;;;;5070915;28;20036;-73
2022/03/15 08:05:44;;;;;;;57.08;26.92;;;6.40;99.90;;;;;;5071386;28;20040;-75
2022/03/15 08:08:10;;;;;;;51.50;25.65;;;6.40;99.90;;;;;;5070164;28;20067;-74
2022/03/15 08:10:36;;;;;;;47.72;26.38;;;6.50;99.90;;;;;;5070396;28;20040;-73
2022/03/15 08:13:02;;;;;;;55.70;26.08;;;6.50;99.90;;;;;;5067073;28;20103;-74
2022/03/15 08:15:28;;;;;;;47.47;25.15;;;6.50;99.90;;;;;;5060799;28;20037;-74
2022/03/15 08:17:54;;;;;;;47.25;26.13;;;6.50;99.90;;;;;;5060089;28;20079;-73
2022/03/15 08:20:20;;;;;;;45.78;25.95;;;6.50;99.90;;;;;;5060449;28;20614;-74
2022/03/15 08:22:46;;;;;;;50.63;25.65;;;6.60;99.90;;;;;;5058807;28;20045;-74
2022/03/15 08:25:12;;;;;;;53.03;26.65;;;6.70;99.90;;;;;;5084625;28;20095;-73
2022/03/15 08:27:38;;;;;;;50.67;26.27;;;6.70;99.90;;;;;;5074857;28;20045;-74
2022/03/15 08:30:04;;;;;;;50.35;26.10;;;6.80;99.90;;;;;;5059550;28;20033;-74
2022/03/15 08:32:30;;;;;;;51.08;25.85;;;6.80;99.90;;;;;;5062806;28;20037;-74
2022/03/15 08:34:56;;;;;;;49.63;25.13;;;6.90;99.90;;;;;;5067342;28;20062;-74
2022/03/15 08:37:21;;;;;;;42.58;24.88;;;6.90;99.90;;;;;;5083235;28;20033;-74
2022/03/15 08:39:47;;;;;;;49.25;26.05;;;6.90;99.90;;;;;;5085194;28;20071;-74
2022/03/15 08:42:13;;;;;;;43.83;25.33;;;6.90;99.90;;;;;;5041263;28;20033;-73
2022/03/15 08:44:38;;;;;;;48.58;25.92;;;6.90;99.90;;;;;;5061051;28;20032;-72
2022/03/15 08:47:04;;;;;;;43.70;24.98;;;7.00;99.90;;;;;;5059791;28;20045;-73
2022/03/15 08:49:29;;;;;;;42.85;24.92;;;7.00;99.90;;;;;;5057760;28;20559;-73
2022/03/15 08:51:55;;;;;;;46.17;25.15;;;7.00;99.90;;;;;;5059899;28;20048;-73
2022/03/15 08:54:22;;;;;;;48.00;25.00;;;7.00;99.90;;;;;;5059118;28;20489;-72
2022/03/15 08:56:48;;;;;;;41.70;24.30;;;7.10;99.90;;;;;;5044222;28;20123;-73
2022/03/15 08:59:15;;;;;;;41.85;22.88;;;7.10;99.90;;;;;;5059396;28;20045;-73
2022/03/15 09:01:44;;;;;;;47.03;23.92;;;7.10;99.90;;;;;;5058079;28;20051;-73
2022/03/15 09:04:11;;;;;;;42.42;24.17;;;7.20;99.90;;;;;;5057274;28;20040;-75
2022/03/15 09:06:37;;;;;;;48.17;25.58;;;7.10;99.90;;;;;;5060662;28;20048;-76
2022/03/15 09:09:03;;;;;;;47.10;24.52;;;7.20;99.90;;;;;;5043695;28;20048;-75
2022/03/15 09:11:32;;;;;;;44.63;24.92;;;7.30;99.90;;;;;;5063041;28;20071;-76
2022/03/15 09:13:58;;;;;;;44.88;25.98;;;7.30;99.90;;;;;;5069386;28;20420;-75
2022/03/15 09:16:24;;;;;;;40.63;24.02;;;7.30;99.90;;;;;;5070857;28;20048;-76
2022/03/15 09:18:50;;;;;;;44.22;25.75;;;7.40;99.90;;;;;;5069664;28;20124;-76
2022/03/15 09:21:16;;;;;;;43.65;25.17;;;7.40;99.90;;;;;;5069138;28;20475;-76
2022/03/15 09:23:42;;;;;;;45.58;25.73;;;7.40;99.90;;;;;;5068524;28;20040;-76
2022/03/15 09:26:07;;;;;;;45.15;24.80;;;7.40;99.90;;;;;;5069205;28;20504;-76
2022/03/15 09:28:33;;;;;;;46.50;24.77;;;7.40;99.90;;;;;;5070594;28;20116;-75
2022/03/15 09:31:01;;;;;;;45.25;26.85;;;7.50;99.90;;;;;;5057833;28;20037;-76
2022/03/15 09:33:27;;;;;;;48.00;26.67;;;7.50;99.90;;;;;;5049828;28;20095;-76
2022/03/15 09:35:53;;;;;;;45.95;25.55;;;7.60;99.90;;;;;;5056568;28;20048;-75
2022/03/15 09:38:21;;;;;;;41.28;25.30;;;7.50;99.90;;;;;;5062731;28;20102;-75
2022/03/15 09:40:52;;;;;;;47.25;25.08;;;7.60;99.90;;;;;;5050881;28;20041;-75
2022/03/15 09:43:23;;;;;;;46.10;25.03;;;7.60;99.90;;;;;;5048151;28;20076;-76
2022/03/15 09:45:50;;;;;;;45.47;25.00;;;7.60;99.90;;;;;;5048981;28;20037;-76
2022/03/15 09:48:19;;;;;;;44.22;26.17;;;7.70;99.90;;;;;;5052347;28;20112;-76
2022/03/15 09:50:48;;;;;;;44.22;24.23;;;7.70;99.90;;;;;;5060693;28;20068;-74
2022/03/15 09:53:15;;;;;;;40.05;24.73;;;7.70;99.90;;;;;;5063532;28;20039;-74
2022/03/15 09:55:45;;;;;;;50.03;27.20;;;7.80;99.90;;;;;;5067652;28;20040;-76
2022/03/15 09:58:18;;;;;;;43.03;24.20;;;7.80;99.90;;;;;;5090504;28;20059;-71
2022/03/15 10:00:44;;;;;;;40.83;24.85;;;7.80;99.90;;;;;;5080744;28;20037;-73
2022/03/15 10:03:10;;;;;;;43.17;23.25;;;7.80;99.90;;;;;;5061199;28;20051;-73
2022/03/15 10:05:36;;;;;;;40.00;24.52;;;7.90;99.90;;;;;;5038969;28;20037;-73
2022/03/15 10:08:03;;;;;;;39.10;24.00;;;7.90;99.90;;;;;;5053964;28;20041;-73
2022/03/15 10:10:29;;;;;;;43.35;24.98;;;7.90;99.90;;;;;;5064310;28;20032;-73
2022/03/15 10:12:55;;;;;;;48.15;24.23;;;7.90;99.90;;;;;;5036874;28;20041;-74
2022/03/15 10:15:22;;;;;;;39.60;23.55;;;8.00;99.90;;;;;;5053084;28;20520;-73
2022/03/15 10:17:55;;;;;;;37.38;21.98;;;8.00;99.90;;;;;;5054251;28;20033;-74
2022/03/15 10:20:28;;;;;;;44.85;23.95;;;8.00;99.90;;;;;;5052441;28;20079;-73
2022/03/15 10:23:02;;;;;;;41.45;23.50;;;8.10;99.90;;;;;;5051842;28;20049;-74
2022/03/15 10:25:30;;;;;;;37.00;23.63;;;8.10;99.90;;;;;;5065112;28;20062;-74
2022/03/15 10:28:01;;;;;;;37.03;23.08;;;8.10;99.90;;;;;;5073936;28;20042;-73
2022/03/15 10:30:28;;;;;;;44.00;25.55;;;8.20;99.90;;;;;;5074129;28;20378;-73
2022/03/15 10:32:55;;;;;;;36.08;23.08;;;8.30;99.90;;;;;;5073004;28;20040;-73
2022/03/15 10:35:24;;;;;;;38.97;23.80;;;8.40;99.90;;;;;;5072511;28;20484;-74
2022/03/15 10:37:50;;;;;;;33.40;23.27;;;8.40;99.90;;;;;;5072116;28;20123;-73
2022/03/15 10:40:17;;;;;;;38.47;21.92;;;8.40;99.90;;;;;;5072315;28;20065;-74
2022/03/15 10:42:44;;;;;;;39.25;21.88;;;8.40;99.90;;;;;;5072769;28;20052;-71
2022/03/15 10:45:17;;;;;;;37.30;23.58;;;8.50;99.90;;;;;;5073010;28;20063;-71
2022/03/15 10:47:52;;;;;;;36.70;22.75;;;8.50;99.90;;;;;;5073237;28;20451;-73
2022/03/15 10:50:20;;;;;;;38.28;24.08;;;8.60;99.90;;;;;;5075499;28;20032;-72
2022/03/15 10:52:46;;;;;;;35.78;22.30;;;8.60;99.90;;;;;;5074677;28;20048;-72
2022/03/15 10:55:34;;;;;;;38.58;22.25;;;8.70;99.90;;;;;;5071860;28;20402;-72
2022/03/15 10:58:02;;;;;;;42.58;22.25;;;8.70;99.90;;;;;;5071293;28;20500;-73
2022/03/15 11:00:29;;;;;;;34.80;23.15;;;8.70;99.90;;;;;;5072815;28;20051;-72
2022/03/15 11:02:55;;;;;;;36.38;22.05;;;8.80;99.90;;;;;;5071855;28;20041;-73
2022/03/15 11:05:29;;;;;;;36.13;21.85;;;8.80;99.90;;;;;;5072579;28;20202;-73
2022/03/15 11:07:55;;;;;;;35.28;21.08;;;8.80;99.90;;;;;;5072790;28;20072;-73
2022/03/15 11:10:22;;;;;;;34.42;21.65;;;8.90;99.90;;;;;;5073442;28;20047;-73
2022/03/15 11:12:57;;;;;;;37.70;22.15;;;8.90;99.90;;;;;;5071793;28;20067;-73
2022/03/15 11:15:28;;;;;;;33.58;22.55;;;9.00;99.90;;;;;;5071702;28;20044;-73
2022/03/15 11:17:59;;;;;;;37.97;22.35;;;9.00;99.90;;;;;;5072867;28;20051;-73
2022/03/15 11:20:27;;;;;;;41.13;23.35;;;9.00;99.90;;;;;;5073004;28;20032;-73
2022/03/15 11:22:59;;;;;;;35.95;21.00;;;9.10;99.90;;;;;;5092161;28;20040;-71
2022/03/15 11:25:35;;;;;;;39.13;23.02;;;9.20;99.90;;;;;;5097860;28;20074;-72
2022/03/15 11:28:03;;;;;;;38.67;22.08;;;9.30;99.90;;;;;;5072837;28;20519;-72
2022/03/15 11:30:29;;;;;;;39.40;22.27;;;9.30;99.90;;;;;;5072833;28;20036;-73
2022/03/15 11:32:55;;;;;;;32.47;21.27;;;9.40;99.90;;;;;;5070283;28;20166;-72
2022/03/15 11:35:23;;;;;;;34.95;20.70;;;9.40;99.90;;;;;;5072163;28;20499;-73
2022/03/15 11:37:50;;;;;;;35.63;20.60;;;9.50;99.90;;;;;;5071035;28;20040;-72
2022/03/15 11:40:18;;;;;;;33.15;21.00;;;9.50;99.90;;;;;;5070979;28;20106;-74
2022/03/15 11:42:47;;;;;;;34.05;20.70;;;9.50;99.90;;;;;;5069999;28;20525;-73
2022/03/15 11:45:31;;;;;;;32.30;18.70;;;9.60;99.90;;;;;;5059936;28;20048;-73
2022/03/15 11:48:11;;;;;;;31.85;19.17;;;9.70;99.90;;;;;;5062727;28;20504;-73
2022/03/15 11:50:42;;;;;;;35.28;20.73;;;9.70;99.90;;;;;;5061198;28;20090;-72
2022/03/15 11:53:26;;;;;;;36.22;20.65;;;9.70;99.90;;;;;;5060551;28;20503;-72
2022/03/15 11:55:54;;;;;;;32.80;19.92;;;9.70;99.90;;;;;;5061690;28;20041;-72
2022/03/15 11:58:28;;;;;;;31.23;18.20;;;9.80;99.90;;;;;;5059286;28;20171;-73
2022/03/15 12:00:56;;;;;;;32.92;18.13;;;9.80;99.90;;;;;;5058248;28;20048;-74
2022/03/15 12:03:26;;;;;;;31.38;19.25;;;9.80;99.90;;;;;;5049693;28;20116;-73
2022/03/15 12:05:58;;;;;;;32.67;19.35;;;9.90;99.90;;;;;;5050441;28;20113;-71
2022/03/15 12:08:27;;;;;;;30.17;18.77;;;10.00;99.90;;;;;;5050316;28;20036;-70
2022/03/15 12:11:01;;;;;;;34.70;19.08;;;10.00;99.90;;;;;;5051550;28;20412;-70
2022/03/15 12:13:37;;;;;;;31.73;19.27;;;10.10;99.90;;;;;;5050652;28;20060;-71
2022/03/15 12:16:15;;;;;;;33.13;17.95;;;10.10;99.90;;;;;;5049207;28;20123;-71
2022/03/15 12:18:54;;;;;;;32.90;16.38;;;10.20;99.90;;;;;;5049807;28;20144;-70
2022/03/15 12:21:26;;;;;;;28.92;19.17;;;10.20;99.90;;;;;;5051211;28;20118;-71
2022/03/15 12:23:53;;;;;;;30.80;18.30;;;10.20;99.90;;;;;;5048866;28;20618;-70
2022/03/15 12:26:26;;;;;;;26.05;17.13;;;10.30;99.90;;;;;;5050998;28;20537;-70
2022/03/15 12:29:14;;;;;;;29.75;16.80;;;10.30;99.90;;;;;;5032947;28;20044;-71
2022/03/15 12:31:45;;;;;;;33.58;17.92;;;10.30;99.90;;;;;;5050524;28;20048;-73
2022/03/15 12:34:15;;;;;;;34.20;18.02;;;10.40;99.90;;;;;;5033253;28;20389;-73
2022/03/15 12:36:58;;;;;;;33.50;17.85;;;10.40;99.90;;;;;;5051000;28;20043;-74
2022/03/15 12:39:28;;;;;;;;;;;10.50;99.90;;;;;;5051420;28;20052;-74
2022/03/15 12:42:09;;;;;;;30.80;17.20;;;10.50;99.90;;;;;;5050218;28;20035;-71
2022/03/15 12:44:50;;;;;;;23.25;14.43;;;10.50;99.90;;;;;;5050044;28;20044;-72